sensor_id;sensor_type;location;lat;lon;timestamp;P1;durP1;ratioP1;P2;durP2;ratioP2
11010;SDS011;5558;42.702;23.178;2022-08-20T00:00:50;6.60;;;5.90;;
11010;SDS011;5558;42.702;23.178;2022-08-20T00:03:19;7.47;;;6.07;;
11010;SDS011;5558;42.702;23.178;2022-08-20T00:05:50;7.93;;;6.40;;
11010;SDS011;5558;42.702;23.178;2022-08-20T00:08:20;6.40;;;5.80;;
11010;SDS011;5558;42.702;23.178;2022-08-20T00:10:48;6.60;;;5.90;;
11010;SDS011;5558;42.702;23.178;2022-08-20T00:13:18;6.83;;;6.13;;
11010;SDS011;5558;42.702;23.178;2022-08-20T00:15:48;6.90;;;6.10;;
11010;SDS011;5558;42.702;23.178;2022-08-20T00:18:14;6.27;;;5.67;;
11010;SDS011;5558;42.702;23.178;2022-08-20T00:20:42;6.47;;;5.87;;
11010;SDS011;5558;42.702;23.178;2022-08-20T00:23:12;6.00;;;5.50;;
11010;SDS011;5558;42.702;23.178;2022-08-20T00:25:39;6.80;;;6.10;;
11010;SDS011;5558;42.702;23.178;2022-08-20T00:28:07;6.63;;;5.97;;
11010;SDS011;5558;42.702;23.178;2022-08-20T00:30:34;6.33;;;5.83;;
11010;SDS011;5558;42.702;23.178;2022-08-20T00:33:03;6.20;;;5.60;;
11010;SDS011;5558;42.702;23.178;2022-08-20T00:35:32;6.73;;;5.90;;
11010;SDS011;5558;42.702;23.178;2022-08-20T00:38:00;5.50;;;5.00;;
11010;SDS011;5558;42.702;23.178;2022-08-20T00:40:31;6.07;;;5.47;;
11010;SDS011;5558;42.702;23.178;2022-08-20T00:43:00;5.70;;;5.17;;
11010;SDS011;5558;42.702;23.178;2022-08-20T00:45:31;6.03;;;5.40;;
11010;SDS011;5558;42.702;23.178;2022-08-20T00:47:59;6.97;;;5.43;;
11010;SDS011;5558;42.702;23.178;2022-08-20T00:50:27;5.90;;;5.30;;
11010;SDS011;5558;42.702;23.178;2022-08-20T00:52:58;7.17;;;5.43;;
11010;SDS011;5558;42.702;23.178;2022-08-20T00:55:27;5.53;;;5.03;;
11010;SDS011;5558;42.702;23.178;2022-08-20T00:57:58;6.20;;;5.30;;
11010;SDS011;5558;42.702;23.178;2022-08-20T01:00:29;7.60;;;5.53;;
11010;SDS011;5558;42.702;23.178;2022-08-20T01:02:58;6.30;;;5.70;;
11010;SDS011;5558;42.702;23.178;2022-08-20T01:05:25;6.30;;;5.70;;
11010;SDS011;5558;42.702;23.178;2022-08-20T01:07:52;6.57;;;5.60;;
11010;SDS011;5558;42.702;23.178;2022-08-20T01:10:22;5.77;;;5.27;;
11010;SDS011;5558;42.702;23.178;2022-08-20T01:12:52;5.73;;;5.13;;
11010;SDS011;5558;42.702;23.178;2022-08-20T01:15:23;5.33;;;4.90;;
11010;SDS011;5558;42.702;23.178;2022-08-20T01:17:54;6.00;;;5.20;;
11010;SDS011;5558;42.702;23.178;2022-08-20T01:20:23;6.50;;;5.87;;
11010;SDS011;5558;42.702;23.178;2022-08-20T01:22:54;5.87;;;5.33;;
11010;SDS011;5558;42.702;23.178;2022-08-20T01:25:53;6.20;;;5.60;;
11010;SDS011;5558;42.702;23.178;2022-08-20T01:28:26;5.77;;;5.20;;
11010;SDS011;5558;42.702;23.178;2022-08-20T01:30:59;6.30;;;5.70;;
11010;SDS011;5558;42.702;23.178;2022-08-20T01:33:25;5.90;;;5.40;;
11010;SDS011;5558;42.702;23.178;2022-08-20T01:35:52;5.73;;;5.23;;
11010;SDS011;5558;42.702;23.178;2022-08-20T01:38:20;5.83;;;5.30;;
11010;SDS011;5558;42.702;23.178;2022-08-20T01:43:54;7.00;;;5.10;;
11010;SDS011;5558;42.702;23.178;2022-08-20T01:46:23;5.80;;;5.20;;
11010;SDS011;5558;42.702;23.178;2022-08-20T01:48:53;6.03;;;5.17;;
11010;SDS011;5558;42.702;23.178;2022-08-20T01:51:23;5.70;;;5.20;;
11010;SDS011;5558;42.702;23.178;2022-08-20T01:53:52;6.30;;;5.70;;
11010;SDS011;5558;42.702;23.178;2022-08-20T01:56:22;5.90;;;5.37;;
11010;SDS011;5558;42.702;23.178;2022-08-20T01:58:57;5.70;;;5.20;;
11010;SDS011;5558;42.702;23.178;2022-08-20T02:01:27;6.00;;;5.40;;
11010;SDS011;5558;42.702;23.178;2022-08-20T02:03:57;6.30;;;5.70;;
11010;SDS011;5558;42.702;23.178;2022-08-20T02:06:26;6.47;;;5.80;;
11010;SDS011;5558;42.702;23.178;2022-08-20T02:08:55;6.93;;;5.90;;
11010;SDS011;5558;42.702;23.178;2022-08-20T02:11:26;6.67;;;5.97;;
11010;SDS011;5558;42.702;23.178;2022-08-20T02:13:54;6.83;;;6.10;;
11010;SDS011;5558;42.702;23.178;2022-08-20T02:16:22;6.63;;;6.03;;
11010;SDS011;5558;42.702;23.178;2022-08-20T02:18:53;6.07;;;5.47;;
11010;SDS011;5558;42.702;23.178;2022-08-20T02:21:23;5.50;;;5.00;;
11010;SDS011;5558;42.702;23.178;2022-08-20T02:23:53;5.90;;;5.40;;
11010;SDS011;5558;42.702;23.178;2022-08-20T02:26:20;5.93;;;5.30;;
11010;SDS011;5558;42.702;23.178;2022-08-20T02:28:49;5.83;;;4.73;;
11010;SDS011;5558;42.702;23.178;2022-08-20T02:31:17;6.10;;;5.50;;
11010;SDS011;5558;42.702;23.178;2022-08-20T02:33:45;5.83;;;5.23;;
11010;SDS011;5558;42.702;23.178;2022-08-20T02:36:13;6.27;;;5.57;;
11010;SDS011;5558;42.702;23.178;2022-08-20T02:38:42;6.47;;;5.60;;
11010;SDS011;5558;42.702;23.178;2022-08-20T02:41:09;6.33;;;5.73;;
11010;SDS011;5558;42.702;23.178;2022-08-20T02:43:37;6.30;;;5.57;;
11010;SDS011;5558;42.702;23.178;2022-08-20T02:46:06;6.20;;;5.60;;
11010;SDS011;5558;42.702;23.178;2022-08-20T02:48:33;6.00;;;5.00;;
11010;SDS011;5558;42.702;23.178;2022-08-20T02:51:01;6.13;;;5.53;;
11010;SDS011;5558;42.702;23.178;2022-08-20T02:53:32;6.10;;;5.60;;
11010;SDS011;5558;42.702;23.178;2022-08-20T02:56:01;6.17;;;5.40;;
11010;SDS011;5558;42.702;23.178;2022-08-20T02:58:28;6.67;;;5.63;;
11010;SDS011;5558;42.702;23.178;2022-08-20T03:00:55;6.70;;;6.00;;
11010;SDS011;5558;42.702;23.178;2022-08-20T03:03:23;7.13;;;6.03;;
11010;SDS011;5558;42.702;23.178;2022-08-20T03:05:51;6.50;;;5.90;;
11010;SDS011;5558;42.702;23.178;2022-08-20T03:08:22;5.97;;;5.37;;
11010;SDS011;5558;42.702;23.178;2022-08-20T03:10:49;5.70;;;5.20;;
11010;SDS011;5558;42.702;23.178;2022-08-20T03:13:17;6.07;;;5.47;;
11010;SDS011;5558;42.702;23.178;2022-08-20T03:15:45;5.77;;;5.23;;
11010;SDS011;5558;42.702;23.178;2022-08-20T03:18:15;6.13;;;5.50;;
11010;SDS011;5558;42.702;23.178;2022-08-20T03:20:45;6.10;;;5.50;;
11010;SDS011;5558;42.702;23.178;2022-08-20T03:23:13;6.90;;;5.60;;
11010;SDS011;5558;42.702;23.178;2022-08-20T03:25:41;7.00;;;5.60;;
11010;SDS011;5558;42.702;23.178;2022-08-20T03:28:09;6.10;;;5.50;;
11010;SDS011;5558;42.702;23.178;2022-08-20T03:30:38;5.93;;;5.43;;
11010;SDS011;5558;42.702;23.178;2022-08-20T03:33:05;6.63;;;5.93;;
11010;SDS011;5558;42.702;23.178;2022-08-20T03:35:33;6.50;;;5.90;;
11010;SDS011;5558;42.702;23.178;2022-08-20T03:38:04;8.03;;;6.00;;
11010;SDS011;5558;42.702;23.178;2022-08-20T03:40:32;6.17;;;5.57;;
11010;SDS011;5558;42.702;23.178;2022-08-20T03:42:59;6.00;;;5.47;;
11010;SDS011;5558;42.702;23.178;2022-08-20T03:45:26;6.43;;;5.43;;
11010;SDS011;5558;42.702;23.178;2022-08-20T03:47:54;6.77;;;6.07;;
11010;SDS011;5558;42.702;23.178;2022-08-20T03:50:23;7.43;;;5.90;;
11010;SDS011;5558;42.702;23.178;2022-08-20T03:52:53;7.00;;;5.67;;
11010;SDS011;5558;42.702;23.178;2022-08-20T03:55:23;6.50;;;5.90;;
11010;SDS011;5558;42.702;23.178;2022-08-20T03:57:51;6.07;;;5.30;;
11010;SDS011;5558;42.702;23.178;2022-08-20T04:00:20;8.90;;;6.23;;
11010;SDS011;5558;42.702;23.178;2022-08-20T04:02:49;6.50;;;5.80;;
11010;SDS011;5558;42.702;23.178;2022-08-20T04:05:16;7.20;;;5.93;;
11010;SDS011;5558;42.702;23.178;2022-08-20T04:07:43;6.67;;;5.80;;
11010;SDS011;5558;42.702;23.178;2022-08-20T04:10:11;6.47;;;5.83;;
11010;SDS011;5558;42.702;23.178;2022-08-20T04:12:40;7.90;;;5.90;;
11010;SDS011;5558;42.702;23.178;2022-08-20T04:15:08;7.00;;;5.93;;
11010;SDS011;5558;42.702;23.178;2022-08-20T04:17:37;6.57;;;5.87;;
11010;SDS011;5558;42.702;23.178;2022-08-20T04:20:06;6.90;;;5.97;;
11010;SDS011;5558;42.702;23.178;2022-08-20T04:22:34;7.87;;;5.90;;
11010;SDS011;5558;42.702;23.178;2022-08-20T04:25:01;6.10;;;5.50;;
11010;SDS011;5558;42.702;23.178;2022-08-20T04:27:29;6.17;;;5.60;;
11010;SDS011;5558;42.702;23.178;2022-08-20T04:29:58;5.77;;;5.17;;
11010;SDS011;5558;42.702;23.178;2022-08-20T04:32:27;5.73;;;5.20;;
11010;SDS011;5558;42.702;23.178;2022-08-20T04:34:53;5.70;;;5.20;;
11010;SDS011;5558;42.702;23.178;2022-08-20T04:37:21;5.83;;;5.23;;
11010;SDS011;5558;42.702;23.178;2022-08-20T04:39:48;6.67;;;5.63;;
11010;SDS011;5558;42.702;23.178;2022-08-20T04:42:29;6.13;;;5.13;;
11010;SDS011;5558;42.702;23.178;2022-08-20T04:44:57;6.83;;;5.27;;
11010;SDS011;5558;42.702;23.178;2022-08-20T04:47:24;5.67;;;5.07;;
11010;SDS011;5558;42.702;23.178;2022-08-20T04:49:51;6.27;;;5.63;;
11010;SDS011;5558;42.702;23.178;2022-08-20T04:52:24;6.00;;;5.10;;
11010;SDS011;5558;42.702;23.178;2022-08-20T04:54:51;5.43;;;4.93;;
11010;SDS011;5558;42.702;23.178;2022-08-20T04:57:20;7.10;;;6.40;;
11010;SDS011;5558;42.702;23.178;2022-08-20T04:59:48;7.67;;;6.37;;
11010;SDS011;5558;42.702;23.178;2022-08-20T05:02:17;7.10;;;5.43;;
11010;SDS011;5558;42.702;23.178;2022-08-20T05:04:44;7.53;;;5.03;;
11010;SDS011;5558;42.702;23.178;2022-08-20T05:07:12;6.87;;;5.40;;
11010;SDS011;5558;42.702;23.178;2022-08-20T05:09:39;6.07;;;5.40;;
11010;SDS011;5558;42.702;23.178;2022-08-20T05:12:08;10.83;;;5.03;;
11010;SDS011;5558;42.702;23.178;2022-08-20T05:14:35;5.60;;;5.10;;
11010;SDS011;5558;42.702;23.178;2022-08-20T05:17:02;6.23;;;5.27;;
11010;SDS011;5558;42.702;23.178;2022-08-20T05:19:32;6.87;;;5.13;;
11010;SDS011;5558;42.702;23.178;2022-08-20T05:22:00;6.33;;;5.37;;
11010;SDS011;5558;42.702;23.178;2022-08-20T05:24:27;7.13;;;6.10;;
11010;SDS011;5558;42.702;23.178;2022-08-20T05:26:54;7.67;;;5.90;;
11010;SDS011;5558;42.702;23.178;2022-08-20T05:29:21;8.27;;;5.53;;
11010;SDS011;5558;42.702;23.178;2022-08-20T05:31:48;6.60;;;5.77;;
11010;SDS011;5558;42.702;23.178;2022-08-20T05:34:15;10.20;;;5.60;;
11010;SDS011;5558;42.702;23.178;2022-08-20T05:36:44;6.30;;;5.50;;
11010;SDS011;5558;42.702;23.178;2022-08-20T05:39:12;6.10;;;5.50;;
11010;SDS011;5558;42.702;23.178;2022-08-20T05:41:40;5.90;;;5.30;;
11010;SDS011;5558;42.702;23.178;2022-08-20T05:44:07;6.43;;;5.13;;
11010;SDS011;5558;42.702;23.178;2022-08-20T05:46:37;7.07;;;5.07;;
11010;SDS011;5558;42.702;23.178;2022-08-20T05:49:05;5.40;;;4.90;;
11010;SDS011;5558;42.702;23.178;2022-08-20T05:51:32;6.43;;;4.90;;
11010;SDS011;5558;42.702;23.178;2022-08-20T05:54:02;5.60;;;5.10;;
11010;SDS011;5558;42.702;23.178;2022-08-20T05:56:30;5.30;;;4.80;;
11010;SDS011;5558;42.702;23.178;2022-08-20T05:58:58;6.00;;;4.83;;
11010;SDS011;5558;42.702;23.178;2022-08-20T06:01:30;5.77;;;5.00;;
11010;SDS011;5558;42.702;23.178;2022-08-20T06:04:06;6.03;;;4.93;;
11010;SDS011;5558;42.702;23.178;2022-08-20T06:06:53;5.77;;;5.17;;
11010;SDS011;5558;42.702;23.178;2022-08-20T06:09:24;8.17;;;5.27;;
11010;SDS011;5558;42.702;23.178;2022-08-20T06:11:51;6.03;;;5.27;;
11010;SDS011;5558;42.702;23.178;2022-08-20T06:14:18;6.43;;;5.57;;
11010;SDS011;5558;42.702;23.178;2022-08-20T06:16:46;6.50;;;5.10;;
11010;SDS011;5558;42.702;23.178;2022-08-20T06:19:13;7.63;;;5.03;;
11010;SDS011;5558;42.702;23.178;2022-08-20T06:21:40;6.33;;;4.63;;
11010;SDS011;5558;42.702;23.178;2022-08-20T06:24:07;5.73;;;5.13;;
11010;SDS011;5558;42.702;23.178;2022-08-20T06:26:38;7.00;;;5.60;;
11010;SDS011;5558;42.702;23.178;2022-08-20T06:29:06;6.07;;;5.20;;
11010;SDS011;5558;42.702;23.178;2022-08-20T06:31:32;5.80;;;5.10;;
11010;SDS011;5558;42.702;23.178;2022-08-20T06:34:03;6.30;;;5.20;;
11010;SDS011;5558;42.702;23.178;2022-08-20T06:36:31;5.77;;;5.27;;
11010;SDS011;5558;42.702;23.178;2022-08-20T06:38:58;7.83;;;5.27;;
11010;SDS011;5558;42.702;23.178;2022-08-20T06:41:25;6.20;;;5.27;;
11010;SDS011;5558;42.702;23.178;2022-08-20T06:43:53;7.13;;;5.40;;
11010;SDS011;5558;42.702;23.178;2022-08-20T06:46:20;6.03;;;5.50;;
11010;SDS011;5558;42.702;23.178;2022-08-20T06:48:48;5.60;;;5.10;;
11010;SDS011;5558;42.702;23.178;2022-08-20T06:51:16;8.10;;;5.40;;
11010;SDS011;5558;42.702;23.178;2022-08-20T06:53:44;5.40;;;4.90;;
11010;SDS011;5558;42.702;23.178;2022-08-20T06:56:11;5.63;;;5.03;;
11010;SDS011;5558;42.702;23.178;2022-08-20T06:58:38;6.07;;;5.37;;
11010;SDS011;5558;42.702;23.178;2022-08-20T07:01:06;7.00;;;5.93;;
11010;SDS011;5558;42.702;23.178;2022-08-20T07:03:35;9.03;;;5.80;;
11010;SDS011;5558;42.702;23.178;2022-08-20T07:06:02;10.17;;;5.97;;
11010;SDS011;5558;42.702;23.178;2022-08-20T07:08:29;6.60;;;6.00;;
11010;SDS011;5558;42.702;23.178;2022-08-20T07:10:55;6.90;;;5.80;;
11010;SDS011;5558;42.702;23.178;2022-08-20T07:13:24;6.97;;;5.90;;
11010;SDS011;5558;42.702;23.178;2022-08-20T07:15:51;8.80;;;6.00;;
11010;SDS011;5558;42.702;23.178;2022-08-20T07:18:20;8.53;;;6.43;;
11010;SDS011;5558;42.702;23.178;2022-08-20T07:20:47;9.57;;;6.03;;
11010;SDS011;5558;42.702;23.178;2022-08-20T07:23:14;7.57;;;6.10;;
11010;SDS011;5558;42.702;23.178;2022-08-20T07:25:41;9.40;;;6.37;;
11010;SDS011;5558;42.702;23.178;2022-08-20T07:28:11;8.07;;;6.23;;
11010;SDS011;5558;42.702;23.178;2022-08-20T07:30:39;6.63;;;5.97;;
11010;SDS011;5558;42.702;23.178;2022-08-20T07:33:26;7.37;;;6.20;;
11010;SDS011;5558;42.702;23.178;2022-08-20T07:35:53;6.50;;;5.47;;
11010;SDS011;5558;42.702;23.178;2022-08-20T07:38:21;6.27;;;5.67;;
11010;SDS011;5558;42.702;23.178;2022-08-20T07:40:50;7.23;;;5.90;;
11010;SDS011;5558;42.702;23.178;2022-08-20T07:43:18;6.57;;;5.60;;
11010;SDS011;5558;42.702;23.178;2022-08-20T07:45:45;6.97;;;6.07;;
11010;SDS011;5558;42.702;23.178;2022-08-20T07:48:15;7.17;;;6.03;;
11010;SDS011;5558;42.702;23.178;2022-08-20T07:50:44;8.97;;;6.00;;
11010;SDS011;5558;42.702;23.178;2022-08-20T07:53:12;8.70;;;6.53;;
11010;SDS011;5558;42.702;23.178;2022-08-20T07:55:39;9.27;;;6.17;;
11010;SDS011;5558;42.702;23.178;2022-08-20T07:58:08;7.63;;;5.90;;
11010;SDS011;5558;42.702;23.178;2022-08-20T08:00:36;8.20;;;6.20;;
11010;SDS011;5558;42.702;23.178;2022-08-20T08:03:04;8.13;;;6.23;;
11010;SDS011;5558;42.702;23.178;2022-08-20T08:05:31;7.80;;;6.30;;
11010;SDS011;5558;42.702;23.178;2022-08-20T08:08:01;7.47;;;6.50;;
11010;SDS011;5558;42.702;23.178;2022-08-20T08:10:29;7.57;;;6.20;;
11010;SDS011;5558;42.702;23.178;2022-08-20T08:12:56;8.77;;;5.90;;
11010;SDS011;5558;42.702;23.178;2022-08-20T08:15:28;7.13;;;6.27;;
11010;SDS011;5558;42.702;23.178;2022-08-20T08:17:58;7.27;;;6.53;;
11010;SDS011;5558;42.702;23.178;2022-08-20T08:20:32;6.77;;;6.10;;
11010;SDS011;5558;42.702;23.178;2022-08-20T08:23:02;7.23;;;6.30;;
11010;SDS011;5558;42.702;23.178;2022-08-20T08:25:28;7.10;;;5.83;;
11010;SDS011;5558;42.702;23.178;2022-08-20T08:27:56;9.63;;;6.47;;
11010;SDS011;5558;42.702;23.178;2022-08-20T08:30:25;6.87;;;6.17;;
11010;SDS011;5558;42.702;23.178;2022-08-20T08:32:55;7.40;;;5.90;;
11010;SDS011;5558;42.702;23.178;2022-08-20T08:35:40;8.40;;;6.70;;
11010;SDS011;5558;42.702;23.178;2022-08-20T08:38:11;8.90;;;6.67;;
11010;SDS011;5558;42.702;23.178;2022-08-20T08:40:38;8.03;;;6.20;;
11010;SDS011;5558;42.702;23.178;2022-08-20T08:43:06;6.87;;;6.00;;
11010;SDS011;5558;42.702;23.178;2022-08-20T08:45:37;7.77;;;6.23;;
11010;SDS011;5558;42.702;23.178;2022-08-20T08:48:08;7.43;;;6.60;;
11010;SDS011;5558;42.702;23.178;2022-08-20T08:50:35;8.90;;;6.53;;
11010;SDS011;5558;42.702;23.178;2022-08-20T08:53:03;8.00;;;6.37;;
11010;SDS011;5558;42.702;23.178;2022-08-20T08:55:32;10.80;;;7.33;;
11010;SDS011;5558;42.702;23.178;2022-08-20T08:57:59;7.87;;;6.43;;
11010;SDS011;5558;42.702;23.178;2022-08-20T09:00:27;9.83;;;6.73;;
11010;SDS011;5558;42.702;23.178;2022-08-20T09:02:55;8.33;;;6.60;;
11010;SDS011;5558;42.702;23.178;2022-08-20T09:05:27;6.97;;;6.27;;
11010;SDS011;5558;42.702;23.178;2022-08-20T09:07:57;6.53;;;5.93;;
11010;SDS011;5558;42.702;23.178;2022-08-20T09:10:28;6.40;;;5.80;;
11010;SDS011;5558;42.702;23.178;2022-08-20T09:12:57;10.93;;;7.00;;
11010;SDS011;5558;42.702;23.178;2022-08-20T09:15:25;7.30;;;6.20;;
11010;SDS011;5558;42.702;23.178;2022-08-20T09:17:52;6.57;;;5.97;;
11010;SDS011;5558;42.702;23.178;2022-08-20T09:20:19;8.23;;;6.10;;
11010;SDS011;5558;42.702;23.178;2022-08-20T09:22:46;6.90;;;6.20;;
11010;SDS011;5558;42.702;23.178;2022-08-20T09:25:12;6.93;;;6.10;;
11010;SDS011;5558;42.702;23.178;2022-08-20T09:27:39;20.07;;;9.17;;
11010;SDS011;5558;42.702;23.178;2022-08-20T09:30:08;7.33;;;6.50;;
11010;SDS011;5558;42.702;23.178;2022-08-20T09:32:36;7.03;;;6.30;;
11010;SDS011;5558;42.702;23.178;2022-08-20T09:35:03;7.07;;;6.03;;
11010;SDS011;5558;42.702;23.178;2022-08-20T09:37:30;8.77;;;6.13;;
11010;SDS011;5558;42.702;23.178;2022-08-20T09:39:58;6.70;;;6.00;;
11010;SDS011;5558;42.702;23.178;2022-08-20T09:42:26;7.33;;;6.13;;
11010;SDS011;5558;42.702;23.178;2022-08-20T09:44:55;8.03;;;6.17;;
11010;SDS011;5558;42.702;23.178;2022-08-20T09:47:27;7.27;;;6.40;;
11010;SDS011;5558;42.702;23.178;2022-08-20T09:49:54;7.23;;;6.53;;
11010;SDS011;5558;42.702;23.178;2022-08-20T09:52:22;7.10;;;6.40;;
11010;SDS011;5558;42.702;23.178;2022-08-20T09:54:51;7.83;;;6.70;;
11010;SDS011;5558;42.702;23.178;2022-08-20T09:57:22;6.73;;;6.17;;
11010;SDS011;5558;42.702;23.178;2022-08-20T09:59:51;6.80;;;6.20;;
11010;SDS011;5558;42.702;23.178;2022-08-20T10:02:21;8.40;;;6.57;;
11010;SDS011;5558;42.702;23.178;2022-08-20T10:04:49;6.90;;;6.20;;
11010;SDS011;5558;42.702;23.178;2022-08-20T10:07:16;7.53;;;6.67;;
11010;SDS011;5558;42.702;23.178;2022-08-20T10:09:43;7.67;;;6.80;;
11010;SDS011;5558;42.702;23.178;2022-08-20T10:12:10;29.93;;;8.70;;
11010;SDS011;5558;42.702;23.178;2022-08-20T10:14:36;7.17;;;6.43;;
11010;SDS011;5558;42.702;23.178;2022-08-20T10:17:03;6.80;;;6.20;;
11010;SDS011;5558;42.702;23.178;2022-08-20T10:19:30;7.10;;;6.23;;
11010;SDS011;5558;42.702;23.178;2022-08-20T10:21:59;7.93;;;6.57;;
11010;SDS011;5558;42.702;23.178;2022-08-20T10:24:26;7.30;;;6.60;;
11010;SDS011;5558;42.702;23.178;2022-08-20T10:26:53;7.67;;;6.67;;
11010;SDS011;5558;42.702;23.178;2022-08-20T10:29:21;7.03;;;6.37;;
11010;SDS011;5558;42.702;23.178;2022-08-20T10:31:48;8.60;;;6.67;;
11010;SDS011;5558;42.702;23.178;2022-08-20T10:34:15;7.10;;;6.40;;
11010;SDS011;5558;42.702;23.178;2022-08-20T10:36:41;8.17;;;6.73;;
11010;SDS011;5558;42.702;23.178;2022-08-20T10:39:10;7.83;;;7.03;;
11010;SDS011;5558;42.702;23.178;2022-08-20T10:41:36;8.93;;;7.17;;
11010;SDS011;5558;42.702;23.178;2022-08-20T10:44:03;7.50;;;6.80;;
11010;SDS011;5558;42.702;23.178;2022-08-20T10:46:31;9.50;;;6.70;;
11010;SDS011;5558;42.702;23.178;2022-08-20T10:48:57;7.40;;;6.70;;
11010;SDS011;5558;42.702;23.178;2022-08-20T10:51:24;7.03;;;6.33;;
11010;SDS011;5558;42.702;23.178;2022-08-20T10:53:51;8.60;;;6.70;;
11010;SDS011;5558;42.702;23.178;2022-08-20T10:56:20;7.83;;;6.83;;
11010;SDS011;5558;42.702;23.178;2022-08-20T10:58:47;8.17;;;6.80;;
11010;SDS011;5558;42.702;23.178;2022-08-20T11:01:14;7.47;;;6.77;;
11010;SDS011;5558;42.702;23.178;2022-08-20T11:03:41;7.60;;;7.00;;
11010;SDS011;5558;42.702;23.178;2022-08-20T11:06:07;7.67;;;6.87;;
11010;SDS011;5558;42.702;23.178;2022-08-20T11:08:34;7.23;;;6.40;;
11010;SDS011;5558;42.702;23.178;2022-08-20T11:11:01;9.47;;;6.77;;
11010;SDS011;5558;42.702;23.178;2022-08-20T11:13:30;7.43;;;6.60;;
11010;SDS011;5558;42.702;23.178;2022-08-20T11:15:57;7.53;;;6.33;;
11010;SDS011;5558;42.702;23.178;2022-08-20T11:18:24;7.80;;;6.63;;
11010;SDS011;5558;42.702;23.178;2022-08-20T11:20:51;7.57;;;6.80;;
11010;SDS011;5558;42.702;23.178;2022-08-20T11:23:18;7.20;;;6.50;;
11010;SDS011;5558;42.702;23.178;2022-08-20T11:25:44;7.97;;;6.83;;
11010;SDS011;5558;42.702;23.178;2022-08-20T11:28:12;8.30;;;6.70;;
11010;SDS011;5558;42.702;23.178;2022-08-20T11:30:40;6.77;;;6.17;;
11010;SDS011;5558;42.702;23.178;2022-08-20T11:33:07;7.23;;;6.53;;
11010;SDS011;5558;42.702;23.178;2022-08-20T11:35:34;8.13;;;6.50;;
11010;SDS011;5558;42.702;23.178;2022-08-20T11:38:02;6.87;;;6.17;;
11010;SDS011;5558;42.702;23.178;2022-08-20T11:40:29;7.30;;;6.20;;
11010;SDS011;5558;42.702;23.178;2022-08-20T11:42:56;6.60;;;6.00;;
11010;SDS011;5558;42.702;23.178;2022-08-20T11:45:23;9.73;;;6.67;;
11010;SDS011;5558;42.702;23.178;2022-08-20T11:47:51;9.83;;;7.73;;
11010;SDS011;5558;42.702;23.178;2022-08-20T11:50:19;7.27;;;6.53;;
11010;SDS011;5558;42.702;23.178;2022-08-20T11:52:46;8.03;;;6.53;;
11010;SDS011;5558;42.702;23.178;2022-08-20T11:55:14;7.10;;;6.40;;
11010;SDS011;5558;42.702;23.178;2022-08-20T11:57:43;11.77;;;7.53;;
11010;SDS011;5558;42.702;23.178;2022-08-20T12:00:12;6.93;;;6.23;;
11010;SDS011;5558;42.702;23.178;2022-08-20T12:02:41;7.03;;;6.33;;
11010;SDS011;5558;42.702;23.178;2022-08-20T12:05:10;7.97;;;6.20;;
11010;SDS011;5558;42.702;23.178;2022-08-20T12:07:38;6.80;;;6.20;;
11010;SDS011;5558;42.702;23.178;2022-08-20T12:10:05;7.00;;;6.30;;
11010;SDS011;5558;42.702;23.178;2022-08-20T12:12:34;6.73;;;6.17;;
11010;SDS011;5558;42.702;23.178;2022-08-20T12:15:01;7.50;;;6.60;;
11010;SDS011;5558;42.702;23.178;2022-08-20T12:17:29;7.37;;;6.67;;
11010;SDS011;5558;42.702;23.178;2022-08-20T12:19:57;6.83;;;6.17;;
11010;SDS011;5558;42.702;23.178;2022-08-20T12:22:27;7.40;;;6.53;;
11010;SDS011;5558;42.702;23.178;2022-08-20T12:24:54;8.03;;;6.60;;
11010;SDS011;5558;42.702;23.178;2022-08-20T12:27:21;6.87;;;6.17;;
11010;SDS011;5558;42.702;23.178;2022-08-20T12:29:50;7.40;;;6.47;;
11010;SDS011;5558;42.702;23.178;2022-08-20T12:32:18;6.73;;;6.03;;
11010;SDS011;5558;42.702;23.178;2022-08-20T12:34:45;7.33;;;6.40;;
11010;SDS011;5558;42.702;23.178;2022-08-20T12:37:12;7.00;;;6.43;;
11010;SDS011;5558;42.702;23.178;2022-08-20T12:39:43;6.80;;;6.10;;
11010;SDS011;5558;42.702;23.178;2022-08-20T12:42:11;7.70;;;6.10;;
11010;SDS011;5558;42.702;23.178;2022-08-20T12:44:38;6.63;;;6.03;;
11010;SDS011;5558;42.702;23.178;2022-08-20T12:47:08;6.97;;;6.37;;
11010;SDS011;5558;42.702;23.178;2022-08-20T12:49:36;6.80;;;6.13;;
11010;SDS011;5558;42.702;23.178;2022-08-20T12:52:05;7.00;;;5.90;;
11010;SDS011;5558;42.702;23.178;2022-08-20T12:54:32;6.70;;;6.00;;
11010;SDS011;5558;42.702;23.178;2022-08-20T12:57:00;7.00;;;6.30;;
11010;SDS011;5558;42.702;23.178;2022-08-20T12:59:27;7.43;;;5.90;;
11010;SDS011;5558;42.702;23.178;2022-08-20T13:01:55;6.63;;;5.93;;
11010;SDS011;5558;42.702;23.178;2022-08-20T13:04:22;6.87;;;6.17;;
11010;SDS011;5558;42.702;23.178;2022-08-20T13:06:49;6.13;;;5.50;;
11010;SDS011;5558;42.702;23.178;2022-08-20T13:09:16;6.80;;;6.10;;
11010;SDS011;5558;42.702;23.178;2022-08-20T13:11:43;6.57;;;5.70;;
11010;SDS011;5558;42.702;23.178;2022-08-20T13:14:11;7.10;;;6.00;;
11010;SDS011;5558;42.702;23.178;2022-08-20T13:16:38;7.93;;;5.70;;
11010;SDS011;5558;42.702;23.178;2022-08-20T13:19:05;6.57;;;5.60;;
11010;SDS011;5558;42.702;23.178;2022-08-20T13:21:32;8.67;;;5.97;;
11010;SDS011;5558;42.702;23.178;2022-08-20T13:23:58;9.27;;;5.60;;
11010;SDS011;5558;42.702;23.178;2022-08-20T13:26:25;6.37;;;5.77;;
11010;SDS011;5558;42.702;23.178;2022-08-20T13:28:52;7.97;;;5.40;;
11010;SDS011;5558;42.702;23.178;2022-08-20T13:31:20;8.97;;;6.03;;
11010;SDS011;5558;42.702;23.178;2022-08-20T13:33:47;7.30;;;6.00;;
11010;SDS011;5558;42.702;23.178;2022-08-20T13:36:14;7.40;;;6.10;;
11010;SDS011;5558;42.702;23.178;2022-08-20T13:38:40;8.37;;;6.47;;
11010;SDS011;5558;42.702;23.178;2022-08-20T13:41:07;7.43;;;6.60;;
11010;SDS011;5558;42.702;23.178;2022-08-20T13:43:34;7.80;;;7.00;;
11010;SDS011;5558;42.702;23.178;2022-08-20T13:46:01;7.77;;;6.97;;
11010;SDS011;5558;42.702;23.178;2022-08-20T13:48:30;10.30;;;7.67;;
11010;SDS011;5558;42.702;23.178;2022-08-20T13:50:57;12.47;;;8.87;;
11010;SDS011;5558;42.702;23.178;2022-08-20T13:53:24;13.70;;;10.20;;
11010;SDS011;5558;42.702;23.178;2022-08-20T13:55:51;13.60;;;11.20;;
11010;SDS011;5558;42.702;23.178;2022-08-20T13:58:18;15.73;;;11.93;;
11010;SDS011;5558;42.702;23.178;2022-08-20T14:00:47;13.80;;;12.03;;
11010;SDS011;5558;42.702;23.178;2022-08-20T14:03:14;12.50;;;11.10;;
11010;SDS011;5558;42.702;23.178;2022-08-20T14:05:43;13.20;;;11.93;;
11010;SDS011;5558;42.702;23.178;2022-08-20T14:08:11;14.07;;;12.60;;
11010;SDS011;5558;42.702;23.178;2022-08-20T14:10:39;15.07;;;13.57;;
11010;SDS011;5558;42.702;23.178;2022-08-20T14:13:07;15.33;;;13.73;;
11010;SDS011;5558;42.702;23.178;2022-08-20T14:15:34;14.30;;;12.77;;
11010;SDS011;5558;42.702;23.178;2022-08-20T14:18:02;14.80;;;13.27;;
11010;SDS011;5558;42.702;23.178;2022-08-20T14:20:29;14.90;;;13.30;;
11010;SDS011;5558;42.702;23.178;2022-08-20T14:23:00;14.40;;;12.90;;
11010;SDS011;5558;42.702;23.178;2022-08-20T14:25:27;18.53;;;16.63;;
11010;SDS011;5558;42.702;23.178;2022-08-20T14:27:55;13.50;;;12.13;;
11010;SDS011;5558;42.702;23.178;2022-08-20T14:30:24;12.90;;;11.37;;
11010;SDS011;5558;42.702;23.178;2022-08-20T14:32:52;13.17;;;11.77;;
11010;SDS011;5558;42.702;23.178;2022-08-20T14:35:20;13.93;;;11.83;;
11010;SDS011;5558;42.702;23.178;2022-08-20T14:37:47;17.20;;;11.13;;
11010;SDS011;5558;42.702;23.178;2022-08-20T14:40:19;16.07;;;10.10;;
11010;SDS011;5558;42.702;23.178;2022-08-20T14:42:47;11.50;;;7.50;;
11010;SDS011;5558;42.702;23.178;2022-08-20T14:45:15;13.03;;;7.80;;
11010;SDS011;5558;42.702;23.178;2022-08-20T14:47:43;11.53;;;7.10;;
11010;SDS011;5558;42.702;23.178;2022-08-20T14:50:13;9.63;;;6.90;;
11010;SDS011;5558;42.702;23.178;2022-08-20T14:52:41;10.23;;;7.20;;
11010;SDS011;5558;42.702;23.178;2022-08-20T14:55:09;9.40;;;6.87;;